Mesa.AZweather.com - Mesa, AZ
   Red Mountain Frwy and University Dr., El 1518 ft.
       --- Tuesday  Sep. 10, 2019 ---
 
 High Temperature ..  98F at 16:32
 Low Temperature ...  80F at 06:21
 
 High Humidity .....  67% at 06:49
 Low Humidity ......  27% at 17:01
 
 Rainfall Total ....  0.00 in.
 
 High Wind Speed ... ---
                     
 
 High Barometer ....  29.91 at 08:53
 Low Barometer .....  29.76 at 16:54
 
Dew Point    High .... 69   Low ..... 54
 
 
 Time   Temp  Humi  Rain     Baro  DewPt  Wind
00:00,  86F, 48%, 0.00 in, 29.80, 64F, ---
00:30,  86F, 50%, 0.00 in, 29.82, 65F, ---
01:00,  85F, 52%, 0.00 in, 29.81, 65F, ---
01:30,  85F, 54%, 0.00 in, 29.82, 66F, ---
02:00,  84F, 55%, 0.00 in, 29.82, 66F, ---
02:30,  84F, 56%, 0.00 in, 29.82, 67F, ---
03:00,  84F, 57%, 0.00 in, 29.83, 67F, ---
03:30,  83F, 60%, 0.00 in, 29.83, 67F, ---
04:00,  82F, 62%, 0.00 in, 29.84, 68F, ---
04:30,  82F, 64%, 0.00 in, 29.85, 69F, ---
05:00,  81F, 65%, 0.00 in, 29.85, 68F, ---
05:30,  81F, 65%, 0.00 in, 29.85, 68F, ---
06:00,  81F, 65%, 0.00 in, 29.86, 68F, ---
06:30,  80F, 66%, 0.00 in, 29.87, 68F, ---
07:00,  80F, 67%, 0.00 in, 29.88, 69F, ---
07:30,  80F, 67%, 0.00 in, 29.87, 69F, ---
08:00,  81F, 65%, 0.00 in, 29.89, 68F, ---
08:30,  83F, 61%, 0.00 in, 29.90, 68F, ---
09:00,  83F, 57%, 0.00 in, 29.90, 66F, ---
09:30,  86F, 52%, 0.00 in, 29.90, 66F, ---
10:00,  88F, 47%, 0.00 in, 29.90, 65F, ---
10:30,  90F, 45%, 0.00 in, 29.90, 65F, ---
11:00,  91F, 43%, 0.00 in, 29.89, 66F, ---
11:30,  89F, 45%, 0.00 in, 29.88, 65F, ---
12:00,  90F, 42%, 0.00 in, 29.87, 63F, ---
12:30,  94F, 38%, 0.00 in, 29.86, 64F, ---
13:00,  94F, 36%, 0.00 in, 29.84, 62F, ---
13:30,  94F, 35%, 0.00 in, 29.83, 61F, ---
14:00,  96F, 32%, 0.00 in, 29.81, 62F, ---
14:30,  96F, 30%, 0.00 in, 29.80, 60F, ---
15:00,  97F, 29%, 0.00 in, 29.79, 59F, ---
15:30,  97F, 29%, 0.00 in, 29.78, 59F, ---
16:00,  97F, 29%, 0.00 in, 29.78, 59F, ---
16:30,  97F, 28%, 0.00 in, 29.77, 58F, ---
17:00,  97F, 28%, 0.00 in, 29.77, 58F, ---
17:30,  96F, 27%, 0.00 in, 29.77, 57F, ---
18:00,  95F, 27%, 0.00 in, 29.76, 56F, ---
18:30,  93F, 28%, 0.00 in, 29.77, 55F, ---
19:00,  92F, 28%, 0.00 in, 29.77, 54F, ---
19:30,  91F, 30%, 0.00 in, 29.77, 56F, ---
20:00,  88F, 32%, 0.00 in, 29.78, 54F, ---
20:30,  87F, 34%, 0.00 in, 29.80, 56F, ---
21:00,  88F, 37%, 0.00 in, 29.82, 58F, ---
21:30,  87F, 38%, 0.00 in, 29.82, 59F, ---
22:00,  86F, 38%, 0.00 in, 29.83, 57F, ---
22:30,  87F, 40%, 0.00 in, 29.85, 60F, ---
23:00,  86F, 46%, 0.00 in, 29.85, 63F, ---
23:30,  85F, 50%, 0.00 in, 29.86, 64F, ---
23:59,  85F, 52%, 0.00 in, 29.87, 65F, ---